Time;durP1;ratioP1;P1;durP2;ratioP2;P2;SDS_P1;SDS_P2;PMS_P1;PMS_P2;Temp;Humidity;BMP_temperature;BMP_pressure;BME280_temperature;BME280_humidity;BME280_pressure;Samples;Min_cycle;Max_cycle;Signal;HPM_P1;HPM_P2
2022/05/11 00:00:33;;;;;;;4.90;4.70;;;;;;;17.22;57.41;100837.06;6146697;23;20015;-73
2022/05/11 00:03:00;;;;;;;5.13;4.85;;;;;;;17.84;57.45;100932.16;6104584;23;20163;-74
2022/05/11 00:05:27;;;;;;;5.60;5.20;;;;;;;17.78;59.00;100927.31;6165493;23;20013;-74
2022/05/11 00:07:53;;;;;;;4.72;4.53;;;;;;;17.61;59.42;100907.38;6119774;23;20021;-75
2022/05/11 00:10:20;;;;;;;5.30;5.00;;;;;;;17.78;59.00;100926.44;6139347;23;20032;-74
2022/05/11 00:12:47;;;;;;;4.90;4.70;;;;;;;17.73;59.13;100932.13;6117466;23;20019;-74
2022/05/11 00:15:18;;;;;;;6.32;6.03;;;;;;;17.72;58.16;100941.03;6133814;23;20103;-75
2022/05/11 00:17:44;;;;;;;4.82;4.63;;;;;;;17.38;57.36;100869.41;6107764;23;20026;-75
2022/05/11 00:20:12;;;;;;;5.95;5.65;;;;;;;17.63;57.05;100909.94;6138268;23;20021;-73
2022/05/11 00:22:38;;;;;;;5.03;4.82;;;;;;;17.25;58.20;100848.28;6108118;23;20340;-73
2022/05/11 00:25:07;;;;;;;6.32;6.03;;;;;;;17.16;59.05;100838.41;6165345;23;20458;-73
2022/05/11 00:27:34;;;;;;;5.00;4.80;;;;;;;17.72;59.41;100919.81;6110016;23;20332;-75
2022/05/11 00:30:02;;;;;;;5.13;4.90;;;;;;;17.74;59.25;100912.59;6148488;23;20396;-73
2022/05/11 00:32:28;;;;;;;5.28;5.07;;;;;;;17.58;59.36;100901.47;6110831;23;20029;-75
2022/05/11 00:34:55;;;;;;;5.20;5.00;;;;;;;17.07;59.33;100810.78;6142954;23;20257;-75
2022/05/11 00:37:21;;;;;;;5.78;5.47;;;;;;;16.97;59.40;100793.91;6102682;23;20018;-73
2022/05/11 00:39:47;;;;;;;4.80;4.60;;;;;;;17.26;59.63;100835.84;6139891;23;20028;-73
2022/05/11 00:42:14;;;;;;;6.47;6.18;;;;;;;17.25;59.62;100856.25;6108819;23;20017;-74
2022/05/11 00:44:42;;;;;;;4.80;4.60;;;;;;;17.08;60.11;100839.00;6166309;23;20063;-74
2022/05/11 00:47:21;;;;;;;6.50;6.20;;;;;;;17.43;60.29;100879.66;6102957;23;20025;-74
2022/05/11 00:50:09;;;;;;;5.30;5.00;;;;;;;17.32;59.88;100862.78;6149049;23;20017;-74
2022/05/11 00:52:45;;;;;;;5.32;5.03;;;;;;;17.37;60.38;100873.00;6115877;23;20431;-75
2022/05/11 00:55:19;;;;;;;5.10;4.90;;;;;;;17.18;60.19;100831.19;6122722;23;20023;-74
2022/05/11 00:58:01;;;;;;;4.75;4.55;;;;;;;16.58;60.70;100728.88;6137763;23;20450;-73
2022/05/11 01:00:28;;;;;;;5.10;4.90;;;;;;;17.52;60.45;100881.59;6108022;23;20037;-75
2022/05/11 01:03:04;;;;;;;5.20;4.90;;;;;;;16.43;60.82;100705.25;6127688;23;20020;-75
2022/05/11 01:05:31;;;;;;;4.80;4.60;;;;;;;17.49;60.57;100871.22;6108573;23;20033;-75
2022/05/11 01:07:58;;;;;;;4.90;4.60;;;;;;;16.52;61.10;100722.25;6106537;23;20315;-73
2022/05/11 01:10:27;;;;;;;5.10;4.80;;;;;;;17.48;61.56;100877.47;6137169;23;20100;-73
2022/05/11 01:12:58;;;;;;;5.10;4.88;;;;;;;17.46;62.56;100884.69;6105160;23;20013;-74
2022/05/11 01:15:28;;;;;;;5.18;4.97;;;;;;;17.38;63.27;100863.22;6150104;23;20100;-75
2022/05/11 01:17:56;;;;;;;5.20;5.00;;;;;;;17.17;63.47;100821.50;6114989;23;20065;-74
2022/05/11 01:20:24;;;;;;;5.00;4.80;;;;;;;17.23;63.69;100842.25;6137750;23;20228;-74
2022/05/11 01:23:03;;;;;;;5.20;4.90;;;;;;;16.87;64.59;100785.81;6107510;23;20466;-75
2022/05/11 01:25:32;;;;;;;5.15;4.95;;;;;;;17.23;64.65;100858.16;6142992;23;20089;-75
2022/05/11 01:28:11;;;;;;;4.72;4.53;;;;;;;16.62;64.34;100768.28;6116425;23;20450;-74
2022/05/11 01:30:58;;;;;;;4.70;4.50;;;;;;;17.10;64.40;100850.31;6166118;23;20029;-74
2022/05/11 01:33:25;;;;;;;5.55;5.28;;;;;;;16.94;64.26;100837.41;6114971;23;20485;-75
2022/05/11 01:36:05;;;;;;;4.60;4.40;;;;;;;16.91;65.11;100842.09;6112375;23;20033;-74
2022/05/11 01:38:40;;;;;;;4.82;4.63;;;;;;;16.33;64.29;100750.13;6143259;23;20040;-75
2022/05/11 01:41:15;;;;;;;6.47;5.88;;;;;;;16.71;65.26;100819.72;6116376;23;20093;-73
2022/05/11 01:43:42;;;;;;;4.70;4.50;;;;;;;16.71;64.94;100835.63;6140079;23;20084;-74
2022/05/11 01:46:09;;;;;;;6.93;6.53;;;;;;;16.65;65.54;100833.44;6108392;23;20045;-74
2022/05/11 01:48:36;;;;;;;4.90;4.70;;;;;;;16.60;65.45;100838.22;6135184;23;20483;-75
2022/05/11 01:51:03;;;;;;;5.63;5.38;;;;;;;16.53;65.99;100825.44;6138362;23;20020;-73
2022/05/11 01:53:29;;;;;;;5.05;4.78;;;;;;;16.01;65.27;100743.78;6115238;23;20447;-75
2022/05/11 01:55:56;;;;;;;4.90;4.70;;;;;;;16.09;65.69;100767.88;6140481;23;20303;-73
2022/05/11 01:58:23;;;;;;;4.97;4.78;;;;;;;15.96;66.22;100749.41;6130561;23;20614;-75
2022/05/11 02:00:49;;;;;;;5.30;5.00;;;;;;;16.23;66.47;100796.81;6141290;23;20180;-73
2022/05/11 02:03:18;;;;;;;6.30;5.93;;;;;;;16.00;66.34;100755.34;6104607;23;20021;-73
2022/05/11 02:08:32;;;;;;;4.97;4.78;;;;;;;16.29;66.58;100809.59;6107418;23;20021;-75
2022/05/11 02:10:59;;;;;;;5.55;4.97;;;;;;;16.23;66.83;100814.50;6139843;23;20084;-74
2022/05/11 02:13:27;;;;;;;4.93;4.72;;;;;;;16.19;67.29;100815.69;6116659;23;20009;-74
2022/05/11 02:15:54;;;;;;;5.07;4.88;;;;;;;15.49;67.43;100701.63;6130377;23;20032;-74
2022/05/11 02:18:21;;;;;;;5.00;4.80;;;;;;;16.12;67.82;100810.00;6109344;23;21068;-74
2022/05/11 02:20:47;;;;;;;5.00;4.80;;;;;;;15.95;67.47;100774.19;6145192;23;20013;-74
2022/05/11 02:23:16;;;;;;;6.35;6.05;;;;;;;15.95;67.89;100784.75;6112689;23;20459;-74
2022/05/11 02:25:44;;;;;;;5.00;4.80;;;;;;;15.57;68.52;100716.94;6143245;23;20035;-74
2022/05/11 02:28:12;;;;;;;5.82;5.55;;;;;;;15.63;68.66;100742.94;6113536;23;20443;-74
2022/05/11 02:30:39;;;;;;;4.97;4.78;;;;;;;15.95;68.89;100784.75;6140251;23;20024;-72
2022/05/11 02:33:06;;;;;;;6.10;5.80;;;;;;;15.94;68.87;100794.50;6112421;23;20394;-75
2022/05/11 02:35:33;;;;;;;4.68;4.47;;;;;;;15.89;69.33;100793.16;6106651;23;20024;-74
2022/05/11 02:38:05;;;;;;;5.03;4.82;;;;;;;15.85;69.28;100781.94;6142984;23;20025;-74
2022/05/11 02:40:34;;;;;;;4.80;4.60;;;;;;;15.78;68.92;100771.94;6119650;23;20009;-75
2022/05/11 02:43:01;;;;;;;4.88;4.68;;;;;;;15.74;70.03;100758.94;6132035;23;20368;-73
2022/05/11 02:45:30;;;;;;;5.25;5.05;;;;;;;15.33;70.18;100693.13;6112551;23;20459;-71
2022/05/11 02:47:58;;;;;;;5.28;4.97;;;;;;;15.67;70.08;100740.94;6141948;23;20486;-71
2022/05/11 02:50:29;;;;;;;4.80;4.60;;;;;;;15.85;69.35;100760.78;6112975;23;20020;-74
2022/05/11 02:52:55;;;;;;;4.90;4.70;;;;;;;15.89;69.50;100767.53;6143846;23;20088;-74
2022/05/11 02:55:22;;;;;;;6.28;5.88;;;;;;;15.45;70.07;100678.16;6111804;23;20627;-74
2022/05/11 02:57:48;;;;;;;4.90;4.70;;;;;;;15.96;69.91;100767.94;6147151;23;20041;-73
2022/05/11 03:00:17;;;;;;;6.10;5.80;;;;;;;16.00;69.56;100755.34;6110671;23;20034;-74
2022/05/11 03:02:45;;;;;;;4.60;4.40;;;;;;;15.99;69.29;100759.75;6139132;23;20023;-73
2022/05/11 03:05:13;;;;;;;6.63;6.22;;;;;;;15.95;69.69;100772.38;6113615;23;20037;-72
2022/05/11 03:07:40;;;;;;;4.80;4.60;;;;;;;15.67;69.41;100719.75;6122903;23;20025;-73
2022/05/11 03:10:08;;;;;;;6.53;6.22;;;;;;;15.32;69.19;100668.47;6108095;23;20442;-74
2022/05/11 03:12:35;;;;;;;4.90;4.60;;;;;;;15.87;69.95;100755.38;6137891;23;20184;-72
2022/05/11 03:15:03;;;;;;;5.32;4.90;;;;;;;15.71;69.94;100739.75;6120758;23;20129;-73
2022/05/11 03:17:30;;;;;;;4.90;4.70;;;;;;;15.42;69.77;100697.75;6142340;23;20151;-73
2022/05/11 03:19:57;;;;;;;5.10;4.90;;;;;;;15.80;69.88;100755.00;6111168;23;20026;-73
2022/05/11 03:22:23;;;;;;;5.60;5.30;;;;;;;15.48;69.89;100722.91;6137920;23;20005;-74
2022/05/11 03:24:49;;;;;;;5.10;4.90;;;;;;;15.72;69.31;100741.44;6147109;23;20029;-74
2022/05/11 03:27:16;;;;;;;6.25;5.95;;;;;;;15.07;69.61;100642.13;6141391;23;20246;-73
2022/05/11 03:29:42;;;;;;;5.05;4.75;;;;;;;15.22;69.93;100674.56;6113892;23;20029;-73
2022/05/11 03:34:53;;;;;;;5.00;4.80;;;;;;;15.64;70.74;100728.78;6112333;23;20028;-74
2022/05/11 03:37:20;;;;;;;5.70;5.40;;;;;;;15.71;71.41;100745.88;6147536;23;20400;-72
2022/05/11 03:39:47;;;;;;;5.07;4.78;;;;;;;15.71;70.51;100764.38;6115226;23;20351;-74
2022/05/11 03:42:17;;;;;;;6.60;6.30;;;;;;;15.41;71.00;100708.44;6137813;23;20085;-74
2022/05/11 03:44:43;;;;;;;8.55;5.13;;;;;;;15.31;71.03;100685.28;6112780;23;20548;-72
2022/05/11 03:47:10;;;;;;;5.95;5.65;;;;;;;15.64;71.15;100743.81;6141058;23;20078;-74
2022/05/11 03:49:36;;;;;;;4.65;4.45;;;;;;;15.62;71.69;100732.50;6121658;23;20446;-73
2022/05/11 03:52:03;;;;;;;5.72;5.22;;;;;;;15.47;71.66;100715.91;6140224;23;20500;-73
2022/05/11 03:54:35;;;;;;;;;;;;;;;15.59;72.12;100732.69;6117965;23;20456;-74
2022/05/11 03:57:02;;;;;;;5.40;5.15;;;;;;;15.55;72.21;100742.66;6116153;23;19920;-72
2022/05/11 03:59:28;;;;;;;4.55;4.35;;;;;;;15.48;72.71;100731.69;6146375;23;20021;-75
2022/05/11 04:01:55;;;;;;;5.45;5.15;;;;;;;15.47;72.99;100729.16;6122865;23;20029;-75
2022/05/11 04:04:21;;;;;;;5.18;4.97;;;;;;;14.89;72.95;100644.28;6131935;23;20036;-73
2022/05/11 04:06:48;;;;;;;4.90;4.60;;;;;;;15.35;73.93;100728.22;6101398;23;20220;-74
2022/05/11 04:09:14;;;;;;;6.05;5.75;;;;;;;14.70;73.96;100635.03;6134954;23;20371;-73
2022/05/11 04:11:40;;;;;;;4.82;4.63;;;;;;;14.61;74.52;100613.69;6112832;23;20038;-73
2022/05/11 04:14:07;;;;;;;6.55;6.25;;;;;;;14.61;74.99;100626.91;6135654;23;20013;-74
2022/05/11 04:16:33;;;;;;;4.55;4.35;;;;;;;14.88;74.84;100674.31;6135330;23;20420;-74
2022/05/11 04:19:01;;;;;;;4.72;4.53;;;;;;;15.29;75.73;100720.72;6139564;23;20584;-74
2022/05/11 04:21:28;;;;;;;4.70;4.50;;;;;;;15.42;74.86;100726.84;6117978;23;20010;-73
2022/05/11 04:23:54;;;;;;;5.00;4.80;;;;;;;15.17;75.02;100677.50;6142031;23;20057;-74
2022/05/11 04:26:20;;;;;;;4.88;4.68;;;;;;;15.40;74.24;100678.50;6110964;23;20064;-72
2022/05/11 04:28:47;;;;;;;4.65;4.45;;;;;;;15.04;72.93;100566.56;6147522;23;20162;-72
2022/05/11 04:31:13;;;;;;;5.93;5.63;;;;;;;15.66;71.53;100647.50;6113698;23;20036;-72
2022/05/11 04:33:40;;;;;;;4.90;4.60;;;;;;;16.20;71.44;100719.44;6149743;23;20085;-74
2022/05/11 04:36:07;;;;;;;6.07;5.78;;;;;;;16.34;70.81;100712.09;6101289;23;20468;-73
2022/05/11 04:38:34;;;;;;;4.82;4.63;;;;;;;16.57;69.11;100722.75;6144110;23;20168;-74
2022/05/11 04:41:01;;;;;;;5.22;4.93;;;;;;;16.52;68.84;100709.03;6117454;23;20100;-73
2022/05/11 04:43:27;;;;;;;5.78;5.47;;;;;;;16.57;68.87;100716.59;6115915;23;20029;-74
2022/05/11 04:45:55;;;;;;;5.03;4.72;;;;;;;16.55;68.43;100708.75;6144533;23;20352;-74
2022/05/11 04:48:22;;;;;;;5.13;4.80;;;;;;;16.58;68.14;100713.84;6113710;23;20013;-75
2022/05/11 04:50:48;;;;;;;4.80;4.60;;;;;;;16.27;68.37;100657.91;6141709;23;20184;-74
2022/05/11 04:53:17;;;;;;;6.30;6.00;;;;;;;16.65;68.41;100712.38;6118191;23;20025;-73
2022/05/11 04:55:45;;;;;;;5.38;5.03;;;;;;;16.73;67.04;100707.34;6133426;23;20073;-75
2022/05/11 04:58:13;;;;;;;6.07;5.78;;;;;;;16.38;67.29;100635.03;6108766;23;20473;-72
2022/05/11 05:00:40;;;;;;;4.80;4.60;;;;;;;16.41;66.41;100616.28;6149298;23;20019;-74
2022/05/11 05:03:12;;;;;;;5.93;5.63;;;;;;;17.04;65.91;100704.97;6107362;23;20073;-74
2022/05/11 05:05:39;;;;;;;5.20;5.00;;;;;;;16.80;65.69;100651.19;6133291;23;20266;-72
2022/05/11 05:08:07;;;;;;;6.72;6.43;;;;;;;16.82;64.91;100623.66;6102533;23;20021;-73
2022/05/11 05:10:34;;;;;;;5.35;4.80;;;;;;;17.42;64.88;100709.03;6141201;23;20062;-75
2022/05/11 05:13:06;;;;;;;5.43;5.07;;;;;;;17.48;64.18;100710.31;6113282;23;20017;-74
2022/05/11 05:15:36;;;;;;;5.70;5.30;;;;;;;17.76;64.56;100706.28;6140605;23;20196;-73
2022/05/11 05:18:06;;;;;;;7.13;6.78;;;;;;;18.19;62.44;100644.28;6104996;23;20438;-74
2022/05/11 05:20:33;;;;;;;5.97;5.18;;;;;;;19.04;59.80;100640.47;6147103;23;20327;-74
2022/05/11 05:23:00;;;;;;;5.20;4.90;;;;;;;20.18;57.50;100710.03;6099755;23;20032;-73
2022/05/11 05:25:27;;;;;;;4.97;4.78;;;;;;;20.54;56.50;100710.25;6126380;23;20568;-75
2022/05/11 05:31:04;;;;;;;5.95;5.65;;;;;;;20.64;54.59;100633.78;6111499;23;20029;-74
2022/05/11 05:33:27;;;;;;;5.70;5.40;;;;;;;22.01;51.53;100716.53;6102408;23;20116;-73
2022/05/11 05:35:54;;;;;;;5.80;5.30;;;;;;;22.19;50.14;100683.56;6136547;23;20380;-74
2022/05/11 05:38:20;;;;;;;6.20;5.80;;;;;;;22.38;49.30;100717.34;6104305;23;20027;-75
2022/05/11 05:40:46;;;;;;;5.63;5.32;;;;;;;22.70;48.75;100728.22;6128061;23;20025;-74
2022/05/11 05:43:13;;;;;;;7.68;7.20;;;;;;;22.52;48.00;100646.38;6099924;23;20395;-74
2022/05/11 05:45:39;;;;;;;7.30;5.47;;;;;;;22.94;47.11;100724.00;6111411;23;20022;-74
2022/05/11 05:48:06;;;;;;;7.15;6.65;;;;;;;22.93;46.95;100692.88;6141608;23;20025;-74
2022/05/11 05:50:33;;;;;;;5.97;5.68;;;;;;;23.05;46.02;100672.03;6117162;23;20029;-74
2022/05/11 05:52:59;;;;;;;6.47;6.07;;;;;;;23.61;45.46;100721.41;6131477;18;20332;-74
2022/05/11 05:55:25;;;;;;;6.05;5.65;;;;;;;22.52;45.57;100540.22;6056084;23;20705;-73
2022/05/11 05:57:52;;;;;;;5.80;5.50;;;;;;;22.90;45.47;100567.44;6111277;23;20427;-75
2022/05/11 06:00:24;;;;;;;6.45;5.95;;;;;;;23.31;45.17;100591.63;6068706;23;20784;-75
2022/05/11 06:02:50;;;;;;;5.80;5.50;;;;;;;24.25;44.75;100708.22;6088981;23;20455;-74
2022/05/11 06:05:17;;;;;;;6.05;5.65;;;;;;;23.87;44.05;100697.19;6058377;23;20021;-76
2022/05/11 06:07:43;;;;;;;6.00;5.60;;;;;;;23.41;45.50;100687.88;6100761;23;20018;-73
2022/05/11 06:10:10;;;;;;;7.75;7.25;;;;;;;22.83;46.45;100676.97;6067968;23;20362;-74
2022/05/11 06:12:37;;;;;;;6.28;5.97;;;;;;;22.52;47.12;100710.56;6097986;23;20324;-74
2022/05/11 06:15:05;;;;;;;6.35;6.05;;;;;;;21.66;49.92;100691.47;6076648;23;20092;-73
2022/05/11 06:17:33;;;;;;;6.30;5.90;;;;;;;21.06;51.70;100662.63;6082393;23;20518;-73
2022/05/11 06:19:59;;;;;;;5.82;5.53;;;;;;;21.17;52.77;100690.94;6065980;23;20415;-74
2022/05/11 06:22:26;;;;;;;6.20;5.85;;;;;;;21.39;53.19;100710.19;6084793;23;20013;-74
2022/05/11 06:24:52;;;;;;;6.57;6.18;;;;;;;21.41;53.05;100713.53;6102012;23;20514;-74
2022/05/11 06:27:23;;;;;;;6.78;6.28;;;;;;;21.38;52.52;100712.03;6094720;23;20082;-74
2022/05/11 06:29:55;;;;;;;6.00;5.60;;;;;;;21.16;52.77;100715.94;6067155;23;20097;-73
2022/05/11 06:32:24;;;;;;;6.38;6.07;;;;;;;20.96;53.45;100680.50;6076922;23;20017;-74
2022/05/11 06:34:52;;;;;;;6.10;5.80;;;;;;;20.51;51.59;100626.09;6105612;23;20092;-74
2022/05/11 06:37:23;;;;;;;6.75;6.45;;;;;;;20.30;53.15;100639.59;6069837;23;20003;-74
2022/05/11 06:39:50;;;;;;;6.03;5.60;;;;;;;20.37;53.28;100625.72;6067098;23;20040;-74
2022/05/11 06:42:17;;;;;;;7.20;6.80;;;;;;;20.51;54.22;100695.41;6098183;23;20347;-75
2022/05/11 06:44:43;;;;;;;5.93;5.63;;;;;;;20.64;53.54;100718.25;6056908;23;20030;-74
2022/05/11 06:47:10;;;;;;;7.95;7.38;;;;;;;20.59;53.19;100716.03;6085034;23;20026;-74
2022/05/11 06:49:36;;;;;;;6.03;5.72;;;;;;;20.42;52.46;100674.94;6099122;23;20017;-74
2022/05/11 06:52:04;;;;;;;6.22;5.72;;;;;;;20.24;51.36;100636.69;6079398;23;20084;-73
2022/05/11 07:00:00;;;;;;;6.13;5.72;;;;;;;20.93;51.37;100675.50;6095098;23;20471;-73
2022/05/11 07:02:27;;;;;;;5.80;5.40;;;;;;;21.47;50.44;100723.69;6060735;23;20011;-75
2022/05/11 07:04:53;;;;;;;6.07;5.78;;;;;;;21.40;50.52;100711.88;6090778;23;20545;-73
2022/05/11 07:07:19;;;;;;;6.53;6.05;;;;;;;21.39;49.15;100732.41;6063000;23;20013;-74
2022/05/11 07:09:46;;;;;;;6.05;5.55;;;;;;;20.78;49.79;100637.78;6097427;23;20030;-73
2022/05/11 07:12:18;;;;;;;7.80;7.40;;;;;;;21.01;49.76;100656.91;6091933;23;20009;-73
2022/05/11 07:14:50;;;;;;;5.35;5.13;;;;;;;21.61;50.00;100732.97;6055868;23;20495;-73
2022/05/11 07:17:46;;;;;;;7.07;6.68;;;;;;;21.77;48.92;100729.63;6102686;23;20017;-73
2022/05/11 07:20:19;;;;;;;6.75;6.45;;;;;;;21.88;48.55;100726.75;6038724;23;20463;-73
2022/05/11 07:22:46;;;;;;;5.30;5.00;;;;;;;21.86;47.60;100720.72;6101082;23;20176;-74
2022/05/11 07:25:15;;;;;;;6.78;6.47;;;;;;;21.47;48.33;100683.63;6074655;23;20016;-73
2022/05/11 07:27:43;;;;;;;5.20;5.00;;;;;;;21.89;49.09;100729.28;6089218;23;20020;-74
2022/05/11 07:30:13;;;;;;;6.93;6.53;;;;;;;22.01;49.10;100735.22;6063465;23;20608;-74
2022/05/11 07:32:39;;;;;;;5.25;5.03;;;;;;;21.69;47.08;100685.03;6085444;23;20108;-73
2022/05/11 07:35:06;;;;;;;7.00;6.70;;;;;;;21.74;45.90;100722.78;6062774;23;20050;-75
2022/05/11 07:37:32;;;;;;;5.40;5.10;;;;;;;20.72;47.50;100649.03;6102283;23;20518;-74
2022/05/11 07:40:00;;;;;;;4.95;4.75;;;;;;;20.70;48.83;100696.34;6063597;23;20037;-73
2022/05/11 07:42:27;;;;;;;5.20;5.00;;;;;;;21.12;47.13;100714.56;6074717;23;20434;-74
2022/05/11 07:44:53;;;;;;;4.95;4.70;;;;;;;20.37;46.46;100532.44;6098275;23;20064;-74
2022/05/11 07:47:21;;;;;;;5.00;4.80;;;;;;;21.60;46.79;100723.31;6064610;23;20283;-73
2022/05/11 07:49:47;;;;;;;5.00;4.80;;;;;;;21.74;46.33;100709.41;6113485;23;20460;-74
2022/05/11 07:52:14;;;;;;;6.90;6.60;;;;;;;21.43;45.15;100664.41;6079156;23;20100;-75
2022/05/11 07:54:41;;;;;;;4.82;4.63;;;;;;;21.25;46.06;100719.56;6094671;23;20014;-73
2022/05/11 07:59:57;;;;;;;5.43;5.13;;;;;;;21.21;45.81;100675.44;6074773;23;20024;-73
2022/05/11 08:02:27;;;;;;;5.32;5.13;;;;;;;21.19;45.66;100662.28;6106985;23;20045;-73
2022/05/11 08:04:59;;;;;;;5.55;5.25;;;;;;;21.09;45.87;100650.84;6070386;23;20050;-73
2022/05/11 08:07:29;;;;;;;6.13;5.63;;;;;;;20.39;44.62;100520.63;6094177;23;20018;-73
2022/05/11 08:09:59;;;;;;;5.65;5.35;;;;;;;21.25;45.11;100618.97;6055841;23;20425;-74
2022/05/11 08:12:26;;;;;;;5.55;5.25;;;;;;;22.01;44.13;100686.25;6066162;23;20089;-73
2022/05/11 08:14:54;;;;;;;5.20;5.00;;;;;;;22.20;44.48;100712.00;6093806;23;20645;-74
2022/05/11 08:17:26;;;;;;;5.47;5.28;;;;;;;20.49;44.99;100515.25;6094170;23;20380;-73
2022/05/11 08:19:53;;;;;;;5.53;5.13;;;;;;;21.54;45.60;100703.38;6108703;23;20049;-73
2022/05/11 08:22:20;;;;;;;6.53;6.22;;;;;;;21.54;46.52;100711.41;6069103;23;20402;-73
2022/05/11 08:24:49;;;;;;;5.68;5.43;;;;;;;21.60;45.58;100646.69;6098675;23;20142;-73
2022/05/11 08:27:17;;;;;;;6.85;6.55;;;;;;;22.01;45.47;100710.31;6062785;23;20018;-74
2022/05/11 08:35:34;;;;;;;5.28;5.07;;;;;;;22.01;46.08;100697.81;6093753;23;20059;-73
2022/05/11 08:38:00;;;;;;;5.35;5.10;;;;;;;22.08;45.79;100639.22;6059254;23;20705;-73
2022/05/11 08:40:42;;;;;;;5.15;4.95;;;;;;;22.74;45.19;100701.16;6082815;23;20114;-73
2022/05/11 08:43:12;;;;;;;7.03;6.63;;;;;;;23.20;44.33;100707.91;6092298;23;20749;-73
2022/05/11 08:46:01;;;;;;;5.32;5.13;;;;;;;23.27;43.25;100708.09;6066869;23;20287;-73
2022/05/11 08:48:33;;;;;;;5.60;5.30;;;;;;;23.33;42.62;100663.75;6080676;23;20010;-72
2022/05/11 08:51:02;;;;;;;5.30;5.10;;;;;;;23.69;41.81;100699.13;6097158;23;20043;-73
2022/05/11 08:53:35;;;;;;;5.57;5.28;;;;;;;23.33;42.86;100702.09;6057928;23;20188;-75
2022/05/11 08:56:09;;;;;;;5.97;5.72;;;;;;;23.22;42.55;100665.75;6078803;23;20026;-73
2022/05/11 08:58:54;;;;;;;6.32;5.93;;;;;;;23.02;42.95;100699.97;6090997;23;20040;-74
2022/05/11 09:01:29;;;;;;;5.53;5.32;;;;;;;23.43;42.05;100704.63;6064051;23;20026;-73
2022/05/11 09:03:59;;;;;;;6.10;5.80;;;;;;;23.69;42.43;100704.50;6063673;23;20018;-72
2022/05/11 09:06:30;;;;;;;5.60;5.30;;;;;;;23.10;43.71;100701.84;6086651;23;20707;-71
2022/05/11 09:08:59;;;;;;;5.53;5.22;;;;;;;23.22;43.02;100628.25;6067578;23;20101;-73
2022/05/11 09:11:50;;;;;;;5.70;5.40;;;;;;;23.94;42.45;100702.72;6086634;23;20037;-72
2022/05/11 09:14:36;;;;;;;7.35;6.95;;;;;;;23.24;41.89;100666.41;6080029;23;20026;-74
2022/05/11 09:17:06;;;;;;;6.28;5.93;;;;;;;22.72;41.75;100526.59;6076852;23;20026;-72
2022/05/11 09:19:33;;;;;;;5.32;5.13;;;;;;;24.12;41.67;100691.00;6086859;23;20435;-72
2022/05/11 09:22:24;;;;;;;5.78;5.47;;;;;;;24.28;41.16;100685.63;6073840;23;20018;-71
2022/05/11 09:24:55;;;;;;;5.28;5.07;;;;;;;23.77;40.94;100639.38;6100966;23;20108;-72
2022/05/11 09:27:26;;;;;;;5.45;5.25;;;;;;;24.01;40.40;100674.22;6055999;23;20034;-72
2022/05/11 09:30:06;;;;;;;5.60;5.30;;;;;;;24.04;40.64;100684.63;6094147;23;20030;-72
2022/05/11 09:32:37;;;;;;;5.50;5.20;;;;;;;23.72;41.99;100680.06;6090696;23;20041;-72
2022/05/11 09:35:36;;;;;;;6.03;5.72;;;;;;;24.15;40.84;100670.03;6062740;23;20147;-72
2022/05/11 09:38:28;;;;;;;7.00;6.70;;;;;;;24.35;40.36;100683.91;6110429;23;20025;-71
2022/05/11 09:41:05;;;;;;;5.75;5.45;;;;;;;24.26;41.68;100663.50;6065354;23;20026;-72
2022/05/11 09:43:39;;;;;;;5.78;5.47;;;;;;;23.96;40.62;100577.41;6069493;23;20081;-72
2022/05/11 09:46:27;;;;;;;6.70;6.38;;;;;;;24.67;41.34;100669.59;6092390;23;20085;-75
2022/05/11 09:49:06;;;;;;;6.05;5.45;;;;;;;24.82;40.47;100667.03;6068261;23;20026;-73
2022/05/11 09:51:39;;;;;;;5.82;5.53;;;;;;;24.99;40.29;100670.47;6082652;23;20081;-71
2022/05/11 09:54:19;;;;;;;6.63;6.25;;;;;;;24.90;40.06;100666.19;6094948;23;20045;-71
2022/05/11 09:56:49;;;;;;;5.60;5.30;;;;;;;24.76;39.95;100658.84;6068748;23;20198;-73
2022/05/11 09:59:37;;;;;;;7.10;6.60;;;;;;;24.09;41.98;100662.66;6080879;23;20190;-74
2022/05/11 10:02:20;;;;;;;6.85;6.45;;;;;;;24.59;40.50;100658.88;6070107;23;20023;-71
2022/05/11 10:05:01;;;;;;;5.82;5.47;;;;;;;23.21;40.77;100415.09;6075973;23;20017;-73
2022/05/11 10:07:32;;;;;;;5.93;5.63;;;;;;;25.02;40.01;100647.84;6091734;23;20067;-73
2022/05/11 10:10:12;;;;;;;5.63;5.32;;;;;;;25.25;39.91;100653.25;6094375;23;20087;-72
2022/05/11 10:12:41;;;;;;;5.50;5.20;;;;;;;25.02;40.60;100632.53;6094971;23;20298;-71
2022/05/11 10:24:16;;;;;;;5.78;5.47;;;;;;;24.84;40.76;100615.88;6070121;23;20032;-74
2022/05/11 10:26:58;;;;;;;5.40;5.10;;;;;;;25.16;39.94;100624.72;6097529;23;20027;-72
2022/05/11 10:29:52;;;;;;;5.80;5.50;;;;;;;24.61;40.65;100615.78;6054885;23;20006;-73
2022/05/11 10:32:40;;;;;;;5.95;5.65;;;;;;;24.58;40.36;100619.66;6071578;23;20022;-73
2022/05/11 10:35:26;;;;;;;6.63;6.32;;;;;;;24.97;41.33;100612.59;6122293;23;20017;-72
2022/05/11 10:38:01;;;;;;;5.65;5.30;;;;;;;25.02;40.78;100608.38;6066599;23;20109;-71
2022/05/11 10:40:49;;;;;;;5.60;5.30;;;;;;;25.03;40.32;100599.31;6070981;23;20024;-73
2022/05/11 10:43:54;;;;;;;6.80;6.50;;;;;;;25.15;39.87;100615.03;6096603;23;20189;-74
2022/05/11 10:46:31;;;;;;;5.18;4.97;;;;;;;25.51;39.21;100614.47;6064304;23;20127;-72
2022/05/11 10:49:23;;;;;;;5.35;5.07;;;;;;;25.02;39.92;100608.38;6078704;23;20391;-71
2022/05/11 10:51:55;;;;;;;5.57;5.30;;;;;;;25.05;40.51;100604.50;6095708;23;20085;-73
2022/05/11 10:54:49;;;;;;;5.60;5.30;;;;;;;25.32;39.91;100605.88;6068501;23;20024;-73
2022/05/11 10:57:33;;;;;;;7.03;6.63;;;;;;;24.79;39.50;100569.91;6076563;23;20006;-72
2022/05/11 11:00:03;;;;;;;5.60;5.38;;;;;;;25.44;39.38;100604.44;6105496;23;20027;-72
2022/05/11 11:03:09;;;;;;;5.60;5.35;;;;;;;25.75;39.45;100598.13;6063415;23;20006;-71
2022/05/11 11:07:11;;;;;;;5.90;5.60;;;;;;;26.08;38.33;100595.16;6068025;23;20046;-72
2022/05/11 11:08:47;;;;;;;5.50;5.20;;;;;;;26.33;37.42;100589.50;6061853;23;20095;-71
2022/05/11 11:11:30;;;;;;;6.85;6.55;;;;;;;25.92;38.15;100589.94;6076771;23;20088;-72
2022/05/11 11:14:00;;;;;;;5.82;5.53;;;;;;;25.86;37.07;100589.63;6096620;23;20498;-73
2022/05/11 11:16:47;;;;;;;5.70;5.40;;;;;;;25.95;38.12;100585.03;6073037;23;20096;-71
2022/05/11 11:19:14;;;;;;;6.78;6.47;;;;;;;25.65;38.42;100515.06;6102718;23;20041;-72
2022/05/11 11:21:42;;;;;;;5.60;5.30;;;;;;;26.18;37.61;100566.13;6071672;23;20048;-72
2022/05/11 11:24:27;;;;;;;6.82;6.53;;;;;;;26.00;37.26;100506.47;6092829;23;20127;-74
2022/05/11 11:26:59;;;;;;;5.45;5.25;;;;;;;26.73;36.57;100566.66;6066217;23;20026;-73
2022/05/11 11:29:28;;;;;;;5.63;5.32;;;;;;;26.72;37.26;100574.91;6071071;23;20108;-73
2022/05/11 11:32:00;;;;;;;5.90;5.60;;;;;;;25.90;36.33;100427.94;6101227;23;20056;-71
2022/05/11 11:34:38;;;;;;;6.00;5.70;;;;;;;26.85;36.46;100565.13;6073096;23;20018;-72
2022/05/11 11:37:30;;;;;;;6.68;6.38;;;;;;;26.96;36.00;100550.34;6093131;23;20022;-72
2022/05/11 11:40:12;;;;;;;5.80;5.50;;;;;;;25.97;36.16;100389.38;6071720;23;20029;-71
2022/05/11 11:42:40;;;;;;;5.57;5.28;;;;;;;27.25;36.13;100541.31;6096268;23;20020;-71
2022/05/11 11:45:28;;;;;;;7.05;6.70;;;;;;;27.28;35.02;100528.50;6057674;23;20121;-72
2022/05/11 11:48:00;;;;;;;6.00;5.70;;;;;;;26.09;34.82;100367.38;6100792;23;20020;-72
2022/05/11 11:50:44;;;;;;;;;;;;;;;26.55;38.44;100529.34;6063369;23;20100;-71
2022/05/11 11:53:20;;;;;;;7.13;6.72;;;;;;;26.92;35.97;100519.44;6081916;23;19905;-72
2022/05/11 11:55:47;;;;;;;6.03;5.63;;;;;;;26.85;36.70;100543.59;6058009;23;20022;-72
2022/05/11 11:58:24;;;;;;;6.75;6.45;;;;;;;26.88;35.91;100501.97;6080685;23;20518;-72
2022/05/11 12:00:59;;;;;;;6.60;6.15;;;;;;;27.48;36.45;100529.47;6049906;23;20484;-71
2022/05/11 12:03:34;;;;;;;5.90;5.60;;;;;;;27.69;36.37;100520.53;6095207;23;20173;-71
2022/05/11 12:17:31;;;;;;;5.93;5.53;;;;;;;27.16;35.10;100463.47;6072884;23;20023;-73
2022/05/11 12:20:01;;;;;;;6.00;5.70;;;;;;;27.70;36.01;100514.09;6092711;23;20537;-74
2022/05/11 12:22:29;;;;;;;5.70;5.45;;;;;;;26.48;36.66;100450.41;6065134;23;20014;-72
2022/05/11 12:25:08;;;;;;;5.80;5.50;;;;;;;26.31;35.77;100382.53;6097105;23;20033;-72
2022/05/11 12:27:36;;;;;;;6.00;5.70;;;;;;;26.40;37.19;100472.00;6065189;23;20018;-72